sensor_id;sensor_type;location;lat;lon;timestamp;temperature;humidity
68746;SHT31;66104;45.456;11.064;2023-02-01T00:01:25;4.38;62.19
68746;SHT31;66104;45.456;11.064;2023-02-01T00:04:02;4.35;62.47
68746;SHT31;66104;45.456;11.064;2023-02-01T00:06:39;4.35;62.50
68746;SHT31;66104;45.456;11.064;2023-02-01T00:09:16;4.38;62.52
68746;SHT31;66104;45.456;11.064;2023-02-01T00:11:53;4.45;62.40
68746;SHT31;66104;45.456;11.064;2023-02-01T00:14:31;4.51;62.35
68746;SHT31;66104;45.456;11.064;2023-02-01T00:17:09;4.56;62.16
68746;SHT31;66104;45.456;11.064;2023-02-01T00:19:46;4.59;62.04
68746;SHT31;66104;45.456;11.064;2023-02-01T00:22:22;4.61;62.12
68746;SHT31;66104;45.456;11.064;2023-02-01T00:24:59;4.62;62.25
68746;SHT31;66104;45.456;11.064;2023-02-01T00:27:39;4.65;62.28
68746;SHT31;66104;45.456;11.064;2023-02-01T00:30:19;4.63;62.60
68746;SHT31;66104;45.456;11.064;2023-02-01T00:32:56;4.62;62.74
68746;SHT31;66104;45.456;11.064;2023-02-01T00:35:32;4.62;62.85
68746;SHT31;66104;45.456;11.064;2023-02-01T00:38:11;4.61;62.63
68746;SHT31;66104;45.456;11.064;2023-02-01T00:40:48;4.59;62.47
68746;SHT31;66104;45.456;11.064;2023-02-01T00:43:25;4.57;62.37
68746;SHT31;66104;45.456;11.064;2023-02-01T00:46:01;4.54;62.34
68746;SHT31;66104;45.456;11.064;2023-02-01T00:48:36;4.53;62.29
68746;SHT31;66104;45.456;11.064;2023-02-01T00:51:14;4.51;62.51
68746;SHT31;66104;45.456;11.064;2023-02-01T00:53:53;4.49;63.00
68746;SHT31;66104;45.456;11.064;2023-02-01T00:56:30;4.48;63.19
68746;SHT31;66104;45.456;11.064;2023-02-01T00:59:07;4.45;63.03
68746;SHT31;66104;45.456;11.064;2023-02-01T01:01:46;4.38;63.02
68746;SHT31;66104;45.456;11.064;2023-02-01T01:04:23;4.33;63.08
68746;SHT31;66104;45.456;11.064;2023-02-01T01:06:59;4.31;63.01
68746;SHT31;66104;45.456;11.064;2023-02-01T01:09:35;4.24;62.80
68746;SHT31;66104;45.456;11.064;2023-02-01T01:12:11;4.16;62.77
68746;SHT31;66104;45.456;11.064;2023-02-01T01:14:48;4.10;62.87
68746;SHT31;66104;45.456;11.064;2023-02-01T01:17:24;4.08;63.04
68746;SHT31;66104;45.456;11.064;2023-02-01T01:20:02;4.06;63.12
68746;SHT31;66104;45.456;11.064;2023-02-01T01:22:45;4.07;63.49
68746;SHT31;66104;45.456;11.064;2023-02-01T01:25:21;4.07;63.49
68746;SHT31;66104;45.456;11.064;2023-02-01T01:27:58;4.07;63.58
68746;SHT31;66104;45.456;11.064;2023-02-01T01:30:35;4.07;63.50
68746;SHT31;66104;45.456;11.064;2023-02-01T01:33:11;4.08;63.51
68746;SHT31;66104;45.456;11.064;2023-02-01T01:35:48;4.06;63.57
68746;SHT31;66104;45.456;11.064;2023-02-01T01:38:25;4.06;63.59
68746;SHT31;66104;45.456;11.064;2023-02-01T01:41:01;4.08;63.46
68746;SHT31;66104;45.456;11.064;2023-02-01T01:46:57;4.16;63.31
68746;SHT31;66104;45.456;11.064;2023-02-01T01:49:34;4.24;63.25
68746;SHT31;66104;45.456;11.064;2023-02-01T01:52:11;4.31;63.02
68746;SHT31;66104;45.456;11.064;2023-02-01T01:54:48;4.37;62.78
68746;SHT31;66104;45.456;11.064;2023-02-01T01:57:29;4.39;62.60
68746;SHT31;66104;45.456;11.064;2023-02-01T02:00:14;4.39;62.61
68746;SHT31;66104;45.456;11.064;2023-02-01T02:02:57;4.37;62.76
68746;SHT31;66104;45.456;11.064;2023-02-01T02:05:41;4.35;62.80
68746;SHT31;66104;45.456;11.064;2023-02-01T02:08:19;4.35;62.75
68746;SHT31;66104;45.456;11.064;2023-02-01T02:10:57;4.32;62.87
68746;SHT31;66104;45.456;11.064;2023-02-01T02:13:36;4.28;63.05
68746;SHT31;66104;45.456;11.064;2023-02-01T02:16:30;4.23;63.16
68746;SHT31;66104;45.456;11.064;2023-02-01T02:19:35;4.21;63.37
68746;SHT31;66104;45.456;11.064;2023-02-01T02:33:01;4.04;64.25
68746;SHT31;66104;45.456;11.064;2023-02-01T02:36:19;4.02;64.21
68746;SHT31;66104;45.456;11.064;2023-02-01T02:39:08;4.01;64.42
68746;SHT31;66104;45.456;11.064;2023-02-01T02:41:59;4.00;64.40
68746;SHT31;66104;45.456;11.064;2023-02-01T02:45:03;3.99;64.39
68746;SHT31;66104;45.456;11.064;2023-02-01T02:48:07;3.95;64.63
68746;SHT31;66104;45.456;11.064;2023-02-01T02:50:54;3.92;64.70
68746;SHT31;66104;45.456;11.064;2023-02-01T02:53:59;3.93;64.70
68746;SHT31;66104;45.456;11.064;2023-02-01T02:56:57;3.94;64.65
68746;SHT31;66104;45.456;11.064;2023-02-01T02:59:56;4.00;64.50
68746;SHT31;66104;45.456;11.064;2023-02-01T03:02:54;4.07;64.47
68746;SHT31;66104;45.456;11.064;2023-02-01T03:05:49;4.11;64.44
68746;SHT31;66104;45.456;11.064;2023-02-01T03:08:27;4.10;64.52
68746;SHT31;66104;45.456;11.064;2023-02-01T03:11:05;4.12;64.64
68746;SHT31;66104;45.456;11.064;2023-02-01T03:13:44;4.14;64.54
68746;SHT31;66104;45.456;11.064;2023-02-01T03:16:24;4.13;64.48
68746;SHT31;66104;45.456;11.064;2023-02-01T03:19:08;4.09;64.53
68746;SHT31;66104;45.456;11.064;2023-02-01T03:21:50;4.06;64.57
68746;SHT31;66104;45.456;11.064;2023-02-01T03:24:34;4.02;64.73
68746;SHT31;66104;45.456;11.064;2023-02-01T03:27:17;3.86;65.12
68746;SHT31;66104;45.456;11.064;2023-02-01T03:29:58;3.73;65.48
68746;SHT31;66104;45.456;11.064;2023-02-01T03:32:46;3.67;65.61
68746;SHT31;66104;45.456;11.064;2023-02-01T03:35:36;3.61;65.62
68746;SHT31;66104;45.456;11.064;2023-02-01T03:38:20;3.59;65.84
68746;SHT31;66104;45.456;11.064;2023-02-01T03:41:03;3.55;65.97
68746;SHT31;66104;45.456;11.064;2023-02-01T03:43:52;3.50;66.11
68746;SHT31;66104;45.456;11.064;2023-02-01T03:46:37;3.47;66.32
68746;SHT31;66104;45.456;11.064;2023-02-01T03:49:20;3.38;66.68
68746;SHT31;66104;45.456;11.064;2023-02-01T03:52:05;3.36;66.90
68746;SHT31;66104;45.456;11.064;2023-02-01T03:54:46;3.34;67.07
68746;SHT31;66104;45.456;11.064;2023-02-01T03:57:26;3.35;67.62
68746;SHT31;66104;45.456;11.064;2023-02-01T04:00:15;3.39;68.32
68746;SHT31;66104;45.456;11.064;2023-02-01T04:02:56;3.48;68.39
68746;SHT31;66104;45.456;11.064;2023-02-01T04:05:33;3.50;68.13
68746;SHT31;66104;45.456;11.064;2023-02-01T04:08:10;3.51;67.67
68746;SHT31;66104;45.456;11.064;2023-02-01T04:10:47;3.51;67.55
68746;SHT31;66104;45.456;11.064;2023-02-01T04:13:23;3.50;67.57
68746;SHT31;66104;45.456;11.064;2023-02-01T04:16:00;3.48;67.50
68746;SHT31;66104;45.456;11.064;2023-02-01T04:18:37;3.48;67.44
68746;SHT31;66104;45.456;11.064;2023-02-01T04:21:15;3.46;67.49
68746;SHT31;66104;45.456;11.064;2023-02-01T04:23:51;3.42;67.61
68746;SHT31;66104;45.456;11.064;2023-02-01T04:26:28;3.38;67.70
68746;SHT31;66104;45.456;11.064;2023-02-01T04:29:03;3.34;67.77
68746;SHT31;66104;45.456;11.064;2023-02-01T04:31:42;3.33;67.77
68746;SHT31;66104;45.456;11.064;2023-02-01T04:34:20;3.30;67.80
68746;SHT31;66104;45.456;11.064;2023-02-01T04:36:57;3.28;67.70
68746;SHT31;66104;45.456;11.064;2023-02-01T04:39:33;3.27;67.67
68746;SHT31;66104;45.456;11.064;2023-02-01T04:42:10;3.26;67.60
68746;SHT31;66104;45.456;11.064;2023-02-01T04:44:47;3.25;67.60
68746;SHT31;66104;45.456;11.064;2023-02-01T04:47:24;3.26;67.51
68746;SHT31;66104;45.456;11.064;2023-02-01T04:50:01;3.29;67.32
68746;SHT31;66104;45.456;11.064;2023-02-01T04:52:42;3.34;67.20
68746;SHT31;66104;45.456;11.064;2023-02-01T04:55:19;3.36;66.97
68746;SHT31;66104;45.456;11.064;2023-02-01T04:57:56;3.40;66.82
68746;SHT31;66104;45.456;11.064;2023-02-01T05:00:32;3.42;66.70
68746;SHT31;66104;45.456;11.064;2023-02-01T05:03:10;3.41;66.63
68746;SHT31;66104;45.456;11.064;2023-02-01T05:05:48;3.38;66.65
68746;SHT31;66104;45.456;11.064;2023-02-01T05:08:24;3.35;66.59
68746;SHT31;66104;45.456;11.064;2023-02-01T05:11:06;3.31;66.60
68746;SHT31;66104;45.456;11.064;2023-02-01T05:13:56;3.30;66.59
68746;SHT31;66104;45.456;11.064;2023-02-01T05:16:32;3.29;66.64
68746;SHT31;66104;45.456;11.064;2023-02-01T05:19:09;3.27;66.54
68746;SHT31;66104;45.456;11.064;2023-02-01T05:21:46;3.26;66.40
68746;SHT31;66104;45.456;11.064;2023-02-01T05:24:23;3.23;66.41
68746;SHT31;66104;45.456;11.064;2023-02-01T05:26:59;3.24;66.54
68746;SHT31;66104;45.456;11.064;2023-02-01T05:29:36;3.25;66.66
68746;SHT31;66104;45.456;11.064;2023-02-01T05:32:13;3.25;66.65
68746;SHT31;66104;45.456;11.064;2023-02-01T05:34:51;3.33;66.42
68746;SHT31;66104;45.456;11.064;2023-02-01T05:37:27;3.39;66.22
68746;SHT31;66104;45.456;11.064;2023-02-01T05:40:06;3.38;66.19
68746;SHT31;66104;45.456;11.064;2023-02-01T05:42:45;3.35;66.61
68746;SHT31;66104;45.456;11.064;2023-02-01T05:45:22;3.28;67.03
68746;SHT31;66104;45.456;11.064;2023-02-01T05:48:00;3.16;67.43
68746;SHT31;66104;45.456;11.064;2023-02-01T05:50:38;3.09;67.64
68746;SHT31;66104;45.456;11.064;2023-02-01T05:53:17;3.05;67.80
68746;SHT31;66104;45.456;11.064;2023-02-01T05:55:54;3.03;67.90
68746;SHT31;66104;45.456;11.064;2023-02-01T05:58:31;3.00;67.82
68746;SHT31;66104;45.456;11.064;2023-02-01T06:01:07;2.95;68.24
68746;SHT31;66104;45.456;11.064;2023-02-01T06:03:45;2.94;68.42
68746;SHT31;66104;45.456;11.064;2023-02-01T06:06:22;2.92;68.41
68746;SHT31;66104;45.456;11.064;2023-02-01T06:08:58;2.92;68.31
68746;SHT31;66104;45.456;11.064;2023-02-01T06:11:37;2.94;68.16
68746;SHT31;66104;45.456;11.064;2023-02-01T06:14:14;2.95;67.99
68746;SHT31;66104;45.456;11.064;2023-02-01T06:16:53;2.93;67.95
68746;SHT31;66104;45.456;11.064;2023-02-01T06:19:29;2.92;68.21
68746;SHT31;66104;45.456;11.064;2023-02-01T06:22:05;2.92;68.31
68746;SHT31;66104;45.456;11.064;2023-02-01T06:24:42;2.90;68.32
68746;SHT31;66104;45.456;11.064;2023-02-01T06:27:19;2.90;68.40
68746;SHT31;66104;45.456;11.064;2023-02-01T06:29:56;2.88;68.34
68746;SHT31;66104;45.456;11.064;2023-02-01T06:32:32;2.81;68.37
68746;SHT31;66104;45.456;11.064;2023-02-01T06:35:10;2.75;68.54
68746;SHT31;66104;45.456;11.064;2023-02-01T06:37:48;2.74;68.77
68746;SHT31;66104;45.456;11.064;2023-02-01T06:40:27;2.73;68.96
68746;SHT31;66104;45.456;11.064;2023-02-01T06:43:04;2.73;69.14
68746;SHT31;66104;45.456;11.064;2023-02-01T06:45:41;2.75;69.01
68746;SHT31;66104;45.456;11.064;2023-02-01T06:48:18;2.74;68.86
68746;SHT31;66104;45.456;11.064;2023-02-01T06:50:54;2.71;69.15
68746;SHT31;66104;45.456;11.064;2023-02-01T06:53:31;2.70;69.24
68746;SHT31;66104;45.456;11.064;2023-02-01T06:56:09;2.70;69.23
68746;SHT31;66104;45.456;11.064;2023-02-01T06:58:46;2.73;69.32
68746;SHT31;66104;45.456;11.064;2023-02-01T07:01:23;2.75;68.98
68746;SHT31;66104;45.456;11.064;2023-02-01T07:04:00;2.76;68.98
68746;SHT31;66104;45.456;11.064;2023-02-01T07:06:37;2.72;69.05
68746;SHT31;66104;45.456;11.064;2023-02-01T07:09:15;2.69;69.12
68746;SHT31;66104;45.456;11.064;2023-02-01T07:11:51;2.69;69.36
68746;SHT31;66104;45.456;11.064;2023-02-01T07:14:29;2.70;69.43
68746;SHT31;66104;45.456;11.064;2023-02-01T07:17:05;2.74;69.65
68746;SHT31;66104;45.456;11.064;2023-02-01T07:19:42;2.83;69.69
68746;SHT31;66104;45.456;11.064;2023-02-01T07:22:19;2.93;69.75
68746;SHT31;66104;45.456;11.064;2023-02-01T07:24:57;3.01;69.68
68746;SHT31;66104;45.456;11.064;2023-02-01T07:27:35;3.07;69.50
68746;SHT31;66104;45.456;11.064;2023-02-01T07:30:14;3.11;69.50
68746;SHT31;66104;45.456;11.064;2023-02-01T07:32:53;3.19;69.41
68746;SHT31;66104;45.456;11.064;2023-02-01T07:35:30;3.25;69.27
68746;SHT31;66104;45.456;11.064;2023-02-01T07:38:08;3.32;69.12
68746;SHT31;66104;45.456;11.064;2023-02-01T07:40:45;3.37;69.02
68746;SHT31;66104;45.456;11.064;2023-02-01T07:43:22;3.40;68.90
68746;SHT31;66104;45.456;11.064;2023-02-01T07:45:59;3.43;68.78
68746;SHT31;66104;45.456;11.064;2023-02-01T07:48:38;3.48;68.77
68746;SHT31;66104;45.456;11.064;2023-02-01T07:51:15;3.54;68.82
68746;SHT31;66104;45.456;11.064;2023-02-01T07:53:52;3.60;68.82
68746;SHT31;66104;45.456;11.064;2023-02-01T07:56:29;3.68;68.85
68746;SHT31;66104;45.456;11.064;2023-02-01T07:59:06;3.76;68.59
68746;SHT31;66104;45.456;11.064;2023-02-01T08:01:44;3.85;68.07
68746;SHT31;66104;45.456;11.064;2023-02-01T08:04:20;3.96;67.93
68746;SHT31;66104;45.456;11.064;2023-02-01T08:06:57;4.06;67.71
68746;SHT31;66104;45.456;11.064;2023-02-01T08:09:34;4.09;67.79
68746;SHT31;66104;45.456;11.064;2023-02-01T08:12:11;4.01;67.96
68746;SHT31;66104;45.456;11.064;2023-02-01T08:14:48;3.94;68.17
68746;SHT31;66104;45.456;11.064;2023-02-01T08:17:25;3.95;68.23
68746;SHT31;66104;45.456;11.064;2023-02-01T08:20:02;3.98;67.91
68746;SHT31;66104;45.456;11.064;2023-02-01T08:22:45;4.01;67.83
68746;SHT31;66104;45.456;11.064;2023-02-01T08:25:22;4.09;68.10
68746;SHT31;66104;45.456;11.064;2023-02-01T08:27:58;4.19;67.91
68746;SHT31;66104;45.456;11.064;2023-02-01T08:30:35;4.32;67.69
68746;SHT31;66104;45.456;11.064;2023-02-01T08:33:12;4.44;67.51
68746;SHT31;66104;45.456;11.064;2023-02-01T08:35:48;4.54;67.39
68746;SHT31;66104;45.456;11.064;2023-02-01T08:38:25;4.62;67.12
68746;SHT31;66104;45.456;11.064;2023-02-01T08:41:05;4.70;66.75
68746;SHT31;66104;45.456;11.064;2023-02-01T08:43:44;4.76;66.24
68746;SHT31;66104;45.456;11.064;2023-02-01T08:46:21;4.82;65.47
68746;SHT31;66104;45.456;11.064;2023-02-01T08:48:58;4.86;65.02
68746;SHT31;66104;45.456;11.064;2023-02-01T08:51:35;4.93;65.10
68746;SHT31;66104;45.456;11.064;2023-02-01T08:54:11;4.99;65.99
68746;SHT31;66104;45.456;11.064;2023-02-01T08:56:47;5.00;66.81
68746;SHT31;66104;45.456;11.064;2023-02-01T08:59:25;5.07;66.62
68746;SHT31;66104;45.456;11.064;2023-02-01T09:02:03;5.20;65.85
68746;SHT31;66104;45.456;11.064;2023-02-01T09:04:43;5.32;65.35
68746;SHT31;66104;45.456;11.064;2023-02-01T09:07:20;5.41;65.30
68746;SHT31;66104;45.456;11.064;2023-02-01T09:09:57;5.56;65.26
68746;SHT31;66104;45.456;11.064;2023-02-01T09:12:35;5.68;64.92
68746;SHT31;66104;45.456;11.064;2023-02-01T09:15:12;5.80;64.35
68746;SHT31;66104;45.456;11.064;2023-02-01T09:17:49;5.92;64.33
68746;SHT31;66104;45.456;11.064;2023-02-01T09:20:25;6.01;64.36
68746;SHT31;66104;45.456;11.064;2023-02-01T09:23:02;6.08;64.54
68746;SHT31;66104;45.456;11.064;2023-02-01T09:25:40;6.15;64.56
68746;SHT31;66104;45.456;11.064;2023-02-01T09:28:17;6.24;64.07
68746;SHT31;66104;45.456;11.064;2023-02-01T09:30:56;6.31;64.04
68746;SHT31;66104;45.456;11.064;2023-02-01T09:33:31;6.38;64.27
68746;SHT31;66104;45.456;11.064;2023-02-01T09:36:10;6.42;64.64
68746;SHT31;66104;45.456;11.064;2023-02-01T09:38:48;6.46;64.67
68746;SHT31;66104;45.456;11.064;2023-02-01T09:41:34;6.49;64.73
68746;SHT31;66104;45.456;11.064;2023-02-01T09:44:24;6.55;64.67
68746;SHT31;66104;45.456;11.064;2023-02-01T09:47:23;6.63;64.70
68746;SHT31;66104;45.456;11.064;2023-02-01T09:50:02;6.73;64.61
68746;SHT31;66104;45.456;11.064;2023-02-01T09:52:51;6.81;64.44
68746;SHT31;66104;45.456;11.064;2023-02-01T09:55:36;6.92;64.31
68746;SHT31;66104;45.456;11.064;2023-02-01T09:58:19;7.01;64.11
68746;SHT31;66104;45.456;11.064;2023-02-01T10:01:04;7.08;64.15
68746;SHT31;66104;45.456;11.064;2023-02-01T10:03:51;7.16;64.05
68746;SHT31;66104;45.456;11.064;2023-02-01T10:06:43;7.24;64.03
68746;SHT31;66104;45.456;11.064;2023-02-01T10:09:49;7.35;64.03
68746;SHT31;66104;45.456;11.064;2023-02-01T10:12:41;7.44;63.91
68746;SHT31;66104;45.456;11.064;2023-02-01T10:15:47;7.52;63.81
68746;SHT31;66104;45.456;11.064;2023-02-01T10:18:44;7.61;63.89
68746;SHT31;66104;45.456;11.064;2023-02-01T10:21:59;7.66;63.84
68746;SHT31;66104;45.456;11.064;2023-02-01T10:24:43;7.69;63.71
68746;SHT31;66104;45.456;11.064;2023-02-01T10:27:27;7.73;63.84
68746;SHT31;66104;45.456;11.064;2023-02-01T10:30:16;7.82;63.84
68746;SHT31;66104;45.456;11.064;2023-02-01T10:33:07;7.92;63.83
68746;SHT31;66104;45.456;11.064;2023-02-01T10:35:55;8.03;63.37
68746;SHT31;66104;45.456;11.064;2023-02-01T10:38:42;8.17;62.72
68746;SHT31;66104;45.456;11.064;2023-02-01T10:41:21;8.29;62.53
68746;SHT31;66104;45.456;11.064;2023-02-01T10:44:04;8.37;62.37
68746;SHT31;66104;45.456;11.064;2023-02-01T10:46:47;8.44;62.13
68746;SHT31;66104;45.456;11.064;2023-02-01T10:49:26;8.53;61.95
68746;SHT31;66104;45.456;11.064;2023-02-01T10:52:12;8.60;61.48
68746;SHT31;66104;45.456;11.064;2023-02-01T10:54:52;8.65;61.26
68746;SHT31;66104;45.456;11.064;2023-02-01T10:57:55;8.73;61.50
68746;SHT31;66104;45.456;11.064;2023-02-01T11:00:45;8.81;61.45
68746;SHT31;66104;45.456;11.064;2023-02-01T11:03:30;8.92;61.16
68746;SHT31;66104;45.456;11.064;2023-02-01T11:06:24;9.02;61.01
68746;SHT31;66104;45.456;11.064;2023-02-01T11:09:10;9.10;60.76
68746;SHT31;66104;45.456;11.064;2023-02-01T11:11:56;9.16;60.42
68746;SHT31;66104;45.456;11.064;2023-02-01T11:14:37;9.22;60.40
68746;SHT31;66104;45.456;11.064;2023-02-01T11:20:15;9.35;60.26
68746;SHT31;66104;45.456;11.064;2023-02-01T11:23:11;9.43;59.90
68746;SHT31;66104;45.456;11.064;2023-02-01T11:25:53;9.49;59.34
68746;SHT31;66104;45.456;11.064;2023-02-01T11:28:38;9.56;58.45
68746;SHT31;66104;45.456;11.064;2023-02-01T11:31:25;9.64;58.40
68746;SHT31;66104;45.456;11.064;2023-02-01T11:34:07;9.69;58.33
68746;SHT31;66104;45.456;11.064;2023-02-01T11:36:48;9.75;58.09
68746;SHT31;66104;45.456;11.064;2023-02-01T11:39:31;9.81;58.01
68746;SHT31;66104;45.456;11.064;2023-02-01T11:42:13;9.88;57.96
68746;SHT31;66104;45.456;11.064;2023-02-01T11:44:50;9.92;57.93
68746;SHT31;66104;45.456;11.064;2023-02-01T11:47:53;9.97;58.08
68746;SHT31;66104;45.456;11.064;2023-02-01T11:50:34;10.02;57.83
68746;SHT31;66104;45.456;11.064;2023-02-01T11:53:23;10.06;57.49
68746;SHT31;66104;45.456;11.064;2023-02-01T11:56:17;10.10;56.65
68746;SHT31;66104;45.456;11.064;2023-02-01T11:59:07;10.13;56.32
68746;SHT31;66104;45.456;11.064;2023-02-01T12:02:19;10.15;56.05
68746;SHT31;66104;45.456;11.064;2023-02-01T12:08:29;10.23;55.93
68746;SHT31;66104;45.456;11.064;2023-02-01T12:11:35;10.24;55.77
68746;SHT31;66104;45.456;11.064;2023-02-01T12:14:35;10.25;55.69
68746;SHT31;66104;45.456;11.064;2023-02-01T12:24:02;10.36;55.19
68746;SHT31;66104;45.456;11.064;2023-02-01T12:27:08;10.38;54.94
68746;SHT31;66104;45.456;11.064;2023-02-01T12:30:13;10.41;55.01
68746;SHT31;66104;45.456;11.064;2023-02-01T12:33:15;10.45;54.94
68746;SHT31;66104;45.456;11.064;2023-02-01T12:36:10;10.46;54.92
68746;SHT31;66104;45.456;11.064;2023-02-01T12:38:57;10.50;55.07
68746;SHT31;66104;45.456;11.064;2023-02-01T12:41:50;10.53;55.21
68746;SHT31;66104;45.456;11.064;2023-02-01T12:47:28;10.62;55.43
68746;SHT31;66104;45.456;11.064;2023-02-01T12:50:14;10.69;55.53
68746;SHT31;66104;45.456;11.064;2023-02-01T12:53:06;10.74;55.25
68746;SHT31;66104;45.456;11.064;2023-02-01T12:55:54;10.79;55.01
68746;SHT31;66104;45.456;11.064;2023-02-01T12:58:39;10.81;54.87
68746;SHT31;66104;45.456;11.064;2023-02-01T13:01:22;10.81;54.73
68746;SHT31;66104;45.456;11.064;2023-02-01T13:04:09;10.79;54.65
68746;SHT31;66104;45.456;11.064;2023-02-01T13:06:57;10.79;54.95
68746;SHT31;66104;45.456;11.064;2023-02-01T13:09:47;10.82;55.13
68746;SHT31;66104;45.456;11.064;2023-02-01T13:12:29;10.85;55.09
68746;SHT31;66104;45.456;11.064;2023-02-01T13:15:16;10.90;55.06
68746;SHT31;66104;45.456;11.064;2023-02-01T13:18:00;10.91;55.19
68746;SHT31;66104;45.456;11.064;2023-02-01T13:20:43;10.93;55.15
68746;SHT31;66104;45.456;11.064;2023-02-01T13:23:29;10.93;55.27
68746;SHT31;66104;45.456;11.064;2023-02-01T13:26:10;10.94;55.47
68746;SHT31;66104;45.456;11.064;2023-02-01T13:28:47;10.96;55.39
68746;SHT31;66104;45.456;11.064;2023-02-01T13:38:32;11.05;55.69
68746;SHT31;66104;45.456;11.064;2023-02-01T13:41:35;11.06;55.75
68746;SHT31;66104;45.456;11.064;2023-02-01T13:44:28;11.07;55.66
68746;SHT31;66104;45.456;11.064;2023-02-01T13:47:12;11.06;55.80
68746;SHT31;66104;45.456;11.064;2023-02-01T13:49:59;11.05;55.93
68746;SHT31;66104;45.456;11.064;2023-02-01T13:52:55;11.09;56.20
68746;SHT31;66104;45.456;11.064;2023-02-01T13:55:35;11.10;56.23
68746;SHT31;66104;45.456;11.064;2023-02-01T13:58:17;11.09;56.09
68746;SHT31;66104;45.456;11.064;2023-02-01T14:04:06;11.08;56.39
68746;SHT31;66104;45.456;11.064;2023-02-01T14:07:23;11.09;56.34
68746;SHT31;66104;45.456;11.064;2023-02-01T14:10:00;11.08;56.53
68746;SHT31;66104;45.456;11.064;2023-02-01T14:13:26;11.05;56.63
68746;SHT31;66104;45.456;11.064;2023-02-01T14:19:01;11.05;57.00
68746;SHT31;66104;45.456;11.064;2023-02-01T14:21:50;11.06;56.82
68746;SHT31;66104;45.456;11.064;2023-02-01T14:24:30;11.06;56.81
68746;SHT31;66104;45.456;11.064;2023-02-01T14:27:34;11.07;57.13
68746;SHT31;66104;45.456;11.064;2023-02-01T14:30:14;11.06;57.41
68746;SHT31;66104;45.456;11.064;2023-02-01T14:32:54;11.06;57.42
68746;SHT31;66104;45.456;11.064;2023-02-01T14:35:44;11.06;57.51
68746;SHT31;66104;45.456;11.064;2023-02-01T14:38:49;11.04;57.66
68746;SHT31;66104;45.456;11.064;2023-02-01T14:41:29;11.05;57.79
68746;SHT31;66104;45.456;11.064;2023-02-01T14:44:26;11.04;57.85
68746;SHT31;66104;45.456;11.064;2023-02-01T14:47:28;11.06;57.97
68746;SHT31;66104;45.456;11.064;2023-02-01T14:50:30;11.04;58.06
68746;SHT31;66104;45.456;11.064;2023-02-01T14:56:07;11.05;58.30
68746;SHT31;66104;45.456;11.064;2023-02-01T14:58:51;11.05;58.38
68746;SHT31;66104;45.456;11.064;2023-02-01T15:01:48;11.04;58.46
68746;SHT31;66104;45.456;11.064;2023-02-01T15:04:27;11.02;58.59
68746;SHT31;66104;45.456;11.064;2023-02-01T15:07:14;11.00;58.83
68746;SHT31;66104;45.456;11.064;2023-02-01T15:09:53;10.98;58.91
68746;SHT31;66104;45.456;11.064;2023-02-01T15:12:32;10.96;59.02
68746;SHT31;66104;45.456;11.064;2023-02-01T15:15:18;10.94;59.10
68746;SHT31;66104;45.456;11.064;2023-02-01T15:17:55;10.92;59.20
68746;SHT31;66104;45.456;11.064;2023-02-01T15:20:33;10.91;59.36
68746;SHT31;66104;45.456;11.064;2023-02-01T15:23:31;10.87;59.52
68746;SHT31;66104;45.456;11.064;2023-02-01T15:26:09;10.84;59.68
68746;SHT31;66104;45.456;11.064;2023-02-01T15:28:58;10.81;59.78
68746;SHT31;66104;45.456;11.064;2023-02-01T15:31:36;10.78;59.93
68746;SHT31;66104;45.456;11.064;2023-02-01T15:34:16;10.76;60.06
68746;SHT31;66104;45.456;11.064;2023-02-01T15:36:52;10.74;60.17
68746;SHT31;66104;45.456;11.064;2023-02-01T15:42:54;10.65;60.49
68746;SHT31;66104;45.456;11.064;2023-02-01T15:45:31;10.62;60.64
68746;SHT31;66104;45.456;11.064;2023-02-01T15:48:14;10.59;60.82
68746;SHT31;66104;45.456;11.064;2023-02-01T15:51:06;10.55;60.94
68746;SHT31;66104;45.456;11.064;2023-02-01T15:54:02;10.51;61.08
68746;SHT31;66104;45.456;11.064;2023-02-01T15:56:51;10.47;61.25
68746;SHT31;66104;45.456;11.064;2023-02-01T15:59:31;10.44;61.50
68746;SHT31;66104;45.456;11.064;2023-02-01T16:05:23;10.34;61.96
68746;SHT31;66104;45.456;11.064;2023-02-01T16:08:06;10.29;62.16
68746;SHT31;66104;45.456;11.064;2023-02-01T16:10:48;10.22;62.30
68746;SHT31;66104;45.456;11.064;2023-02-01T16:13:25;10.13;62.32
68746;SHT31;66104;45.456;11.064;2023-02-01T16:16:02;10.02;62.45
68746;SHT31;66104;45.456;11.064;2023-02-01T16:18:43;9.92;62.41
68746;SHT31;66104;45.456;11.064;2023-02-01T16:21:19;9.82;62.52
68746;SHT31;66104;45.456;11.064;2023-02-01T16:23:55;9.74;62.48
68746;SHT31;66104;45.456;11.064;2023-02-01T16:26:34;9.65;62.50
68746;SHT31;66104;45.456;11.064;2023-02-01T16:29:11;9.56;62.68
68746;SHT31;66104;45.456;11.064;2023-02-01T16:31:47;9.49;62.61
68746;SHT31;66104;45.456;11.064;2023-02-01T16:34:25;9.47;62.55
68746;SHT31;66104;45.456;11.064;2023-02-01T16:37:00;9.40;62.77
68746;SHT31;66104;45.456;11.064;2023-02-01T16:39:40;9.31;62.83
68746;SHT31;66104;45.456;11.064;2023-02-01T16:42:18;9.21;62.78
68746;SHT31;66104;45.456;11.064;2023-02-01T16:44:54;9.14;62.74
68746;SHT31;66104;45.456;11.064;2023-02-01T16:47:31;9.05;62.88
68746;SHT31;66104;45.456;11.064;2023-02-01T16:50:16;8.95;63.12
68746;SHT31;66104;45.456;11.064;2023-02-01T16:52:55;8.88;63.32
68746;SHT31;66104;45.456;11.064;2023-02-01T16:55:32;8.80;63.57
68746;SHT31;66104;45.456;11.064;2023-02-01T16:58:09;8.72;63.70
68746;SHT31;66104;45.456;11.064;2023-02-01T17:00:46;8.64;64.02
68746;SHT31;66104;45.456;11.064;2023-02-01T17:03:22;8.54;64.09
68746;SHT31;66104;45.456;11.064;2023-02-01T17:05:58;8.46;64.48
68746;SHT31;66104;45.456;11.064;2023-02-01T17:08:37;8.41;64.40
68746;SHT31;66104;45.456;11.064;2023-02-01T17:11:17;8.37;64.40
68746;SHT31;66104;45.456;11.064;2023-02-01T17:13:54;8.30;64.52
68746;SHT31;66104;45.456;11.064;2023-02-01T17:16:31;8.29;64.73
68746;SHT31;66104;45.456;11.064;2023-02-01T17:19:10;8.28;64.68
68746;SHT31;66104;45.456;11.064;2023-02-01T17:21:53;8.24;64.67
68746;SHT31;66104;45.456;11.064;2023-02-01T17:24:30;8.20;64.77
68746;SHT31;66104;45.456;11.064;2023-02-01T17:27:16;8.17;64.80
68746;SHT31;66104;45.456;11.064;2023-02-01T17:29:53;8.16;64.69
68746;SHT31;66104;45.456;11.064;2023-02-01T17:32:32;8.11;64.69
68746;SHT31;66104;45.456;11.064;2023-02-01T17:35:13;8.07;64.93
68746;SHT31;66104;45.456;11.064;2023-02-01T17:37:54;7.99;65.05
68746;SHT31;66104;45.456;11.064;2023-02-01T17:40:31;7.89;65.11
68746;SHT31;66104;45.456;11.064;2023-02-01T17:43:08;7.80;65.46
68746;SHT31;66104;45.456;11.064;2023-02-01T17:45:49;7.73;65.75
68746;SHT31;66104;45.456;11.064;2023-02-01T17:48:28;7.67;65.99
68746;SHT31;66104;45.456;11.064;2023-02-01T17:51:08;7.61;66.25
68746;SHT31;66104;45.456;11.064;2023-02-01T17:53:52;7.54;66.42